sensor_id;sensor_type;location;lat;lon;timestamp;P1;durP1;ratioP1;P2;durP2;ratioP2
3547;SDS011;1788;49.400;11.092;2023-01-16T00:02:18;2.67;;;1.50;;
3547;SDS011;1788;49.400;11.092;2023-01-16T00:04:45;3.30;;;1.67;;
3547;SDS011;1788;49.400;11.092;2023-01-16T00:07:12;1.57;;;1.47;;
3547;SDS011;1788;49.400;11.092;2023-01-16T00:09:38;1.30;;;1.20;;
3547;SDS011;1788;49.400;11.092;2023-01-16T00:12:05;1.50;;;1.40;;
3547;SDS011;1788;49.400;11.092;2023-01-16T00:14:32;1.50;;;1.40;;
3547;SDS011;1788;49.400;11.092;2023-01-16T00:16:59;1.53;;;1.20;;
3547;SDS011;1788;49.400;11.092;2023-01-16T00:19:25;1.87;;;1.77;;
3547;SDS011;1788;49.400;11.092;2023-01-16T00:21:52;1.50;;;1.40;;
3547;SDS011;1788;49.400;11.092;2023-01-16T00:24:19;4.00;;;1.70;;
3547;SDS011;1788;49.400;11.092;2023-01-16T00:26:45;1.17;;;1.07;;
3547;SDS011;1788;49.400;11.092;2023-01-16T00:29:12;2.13;;;1.50;;
3547;SDS011;1788;49.400;11.092;2023-01-16T00:31:39;1.93;;;1.30;;
3547;SDS011;1788;49.400;11.092;2023-01-16T00:34:05;1.47;;;1.37;;
3547;SDS011;1788;49.400;11.092;2023-01-16T00:36:32;1.57;;;1.47;;
3547;SDS011;1788;49.400;11.092;2023-01-16T00:38:58;3.73;;;1.80;;
3547;SDS011;1788;49.400;11.092;2023-01-16T00:41:25;1.60;;;1.50;;
3547;SDS011;1788;49.400;11.092;2023-01-16T00:43:52;1.57;;;1.40;;
3547;SDS011;1788;49.400;11.092;2023-01-16T00:46:18;1.43;;;1.20;;
3547;SDS011;1788;49.400;11.092;2023-01-16T00:48:45;1.73;;;1.63;;
3547;SDS011;1788;49.400;11.092;2023-01-16T00:51:12;1.83;;;1.47;;
3547;SDS011;1788;49.400;11.092;2023-01-16T00:53:40;1.30;;;1.20;;
3547;SDS011;1788;49.400;11.092;2023-01-16T00:56:06;1.73;;;1.63;;
3547;SDS011;1788;49.400;11.092;2023-01-16T00:58:34;1.10;;;1.00;;
3547;SDS011;1788;49.400;11.092;2023-01-16T01:01:00;1.47;;;1.10;;
3547;SDS011;1788;49.400;11.092;2023-01-16T01:03:27;1.33;;;1.20;;
3547;SDS011;1788;49.400;11.092;2023-01-16T01:05:53;1.20;;;1.10;;
3547;SDS011;1788;49.400;11.092;2023-01-16T01:08:20;1.40;;;1.30;;
3547;SDS011;1788;49.400;11.092;2023-01-16T01:10:47;1.30;;;1.23;;
3547;SDS011;1788;49.400;11.092;2023-01-16T01:13:13;1.27;;;1.20;;
3547;SDS011;1788;49.400;11.092;2023-01-16T01:15:40;1.73;;;1.30;;
3547;SDS011;1788;49.400;11.092;2023-01-16T01:18:07;1.20;;;1.10;;
3547;SDS011;1788;49.400;11.092;2023-01-16T01:20:35;1.33;;;1.23;;
3547;SDS011;1788;49.400;11.092;2023-01-16T01:23:01;1.37;;;1.27;;
3547;SDS011;1788;49.400;11.092;2023-01-16T01:25:29;2.40;;;1.50;;
3547;SDS011;1788;49.400;11.092;2023-01-16T01:27:55;3.80;;;1.53;;
3547;SDS011;1788;49.400;11.092;2023-01-16T01:30:22;1.60;;;1.50;;
3547;SDS011;1788;49.400;11.092;2023-01-16T01:32:48;1.90;;;1.80;;
3547;SDS011;1788;49.400;11.092;2023-01-16T01:35:15;1.13;;;1.10;;
3547;SDS011;1788;49.400;11.092;2023-01-16T01:37:42;1.30;;;1.20;;
3547;SDS011;1788;49.400;11.092;2023-01-16T01:40:10;1.43;;;1.23;;
3547;SDS011;1788;49.400;11.092;2023-01-16T01:42:37;1.57;;;1.47;;
3547;SDS011;1788;49.400;11.092;2023-01-16T01:47:32;1.60;;;1.50;;
3547;SDS011;1788;49.400;11.092;2023-01-16T01:49:58;1.70;;;1.60;;
3547;SDS011;1788;49.400;11.092;2023-01-16T01:52:25;1.47;;;1.37;;
3547;SDS011;1788;49.400;11.092;2023-01-16T01:54:54;1.50;;;1.40;;
3547;SDS011;1788;49.400;11.092;2023-01-16T01:57:20;1.77;;;1.40;;
3547;SDS011;1788;49.400;11.092;2023-01-16T02:02:13;2.57;;;2.00;;
3547;SDS011;1788;49.400;11.092;2023-01-16T02:04:39;1.60;;;1.10;;
3547;SDS011;1788;49.400;11.092;2023-01-16T02:07:06;1.40;;;1.30;;
3547;SDS011;1788;49.400;11.092;2023-01-16T02:09:32;2.00;;;1.50;;
3547;SDS011;1788;49.400;11.092;2023-01-16T02:14:26;1.57;;;1.47;;
3547;SDS011;1788;49.400;11.092;2023-01-16T02:16:55;1.20;;;1.10;;
3547;SDS011;1788;49.400;11.092;2023-01-16T02:19:31;1.57;;;1.40;;
3547;SDS011;1788;49.400;11.092;2023-01-16T02:24:19;1.70;;;1.20;;
3547;SDS011;1788;49.400;11.092;2023-01-16T02:29:12;1.80;;;1.20;;
3547;SDS011;1788;49.400;11.092;2023-01-16T02:43:52;1.03;;;1.00;;
3547;SDS011;1788;49.400;11.092;2023-01-16T02:46:19;2.13;;;1.40;;
3547;SDS011;1788;49.400;11.092;2023-01-16T02:51:12;1.27;;;1.10;;
3547;SDS011;1788;49.400;11.092;2023-01-16T02:53:38;1.20;;;1.00;;
3547;SDS011;1788;49.400;11.092;2023-01-16T02:58:31;1.43;;;1.10;;
3547;SDS011;1788;49.400;11.092;2023-01-16T03:00:57;4.20;;;1.23;;
3547;SDS011;1788;49.400;11.092;2023-01-16T03:03:29;1.50;;;1.17;;
3547;SDS011;1788;49.400;11.092;2023-01-16T03:05:50;2.07;;;1.33;;
3547;SDS011;1788;49.400;11.092;2023-01-16T03:13:14;1.30;;;1.20;;
3547;SDS011;1788;49.400;11.092;2023-01-16T03:20:36;1.30;;;1.20;;
3547;SDS011;1788;49.400;11.092;2023-01-16T03:25:26;2.43;;;1.63;;
3547;SDS011;1788;49.400;11.092;2023-01-16T03:27:54;1.47;;;1.40;;
3547;SDS011;1788;49.400;11.092;2023-01-16T03:32:45;1.17;;;1.13;;
3547;SDS011;1788;49.400;11.092;2023-01-16T03:35:13;1.47;;;1.40;;
3547;SDS011;1788;49.400;11.092;2023-01-16T03:37:41;1.30;;;1.20;;
3547;SDS011;1788;49.400;11.092;2023-01-16T03:40:06;1.20;;;1.10;;
3547;SDS011;1788;49.400;11.092;2023-01-16T03:42:35;2.43;;;1.40;;
3547;SDS011;1788;49.400;11.092;2023-01-16T03:45:01;1.47;;;1.40;;
3547;SDS011;1788;49.400;11.092;2023-01-16T03:47:30;1.50;;;1.30;;
3547;SDS011;1788;49.400;11.092;2023-01-16T03:49:54;1.40;;;1.30;;
3547;SDS011;1788;49.400;11.092;2023-01-16T03:52:20;2.77;;;1.40;;
3547;SDS011;1788;49.400;11.092;2023-01-16T03:57:15;2.90;;;1.30;;
3547;SDS011;1788;49.400;11.092;2023-01-16T03:59:42;1.20;;;1.10;;
3547;SDS011;1788;49.400;11.092;2023-01-16T04:02:11;1.47;;;1.37;;
3547;SDS011;1788;49.400;11.092;2023-01-16T04:07:03;2.77;;;1.87;;
3547;SDS011;1788;49.400;11.092;2023-01-16T04:09:31;1.73;;;1.20;;
3547;SDS011;1788;49.400;11.092;2023-01-16T04:11:56;1.50;;;1.10;;
3547;SDS011;1788;49.400;11.092;2023-01-16T04:14:22;2.30;;;1.27;;
3547;SDS011;1788;49.400;11.092;2023-01-16T04:16:49;1.57;;;1.30;;
3547;SDS011;1788;49.400;11.092;2023-01-16T04:19:16;1.10;;;1.07;;
3547;SDS011;1788;49.400;11.092;2023-01-16T04:21:43;1.77;;;1.67;;
3547;SDS011;1788;49.400;11.092;2023-01-16T04:24:09;1.30;;;1.20;;
3547;SDS011;1788;49.400;11.092;2023-01-16T04:26:35;1.37;;;1.27;;
3547;SDS011;1788;49.400;11.092;2023-01-16T04:29:02;1.67;;;1.53;;
3547;SDS011;1788;49.400;11.092;2023-01-16T04:31:29;1.87;;;1.40;;
3547;SDS011;1788;49.400;11.092;2023-01-16T04:33:56;1.33;;;1.23;;
3547;SDS011;1788;49.400;11.092;2023-01-16T04:36:23;1.40;;;1.30;;
3547;SDS011;1788;49.400;11.092;2023-01-16T04:38:51;1.47;;;1.37;;
3547;SDS011;1788;49.400;11.092;2023-01-16T04:41:17;2.30;;;1.30;;
3547;SDS011;1788;49.400;11.092;2023-01-16T04:43:44;2.50;;;1.43;;
3547;SDS011;1788;49.400;11.092;2023-01-16T04:46:10;1.43;;;1.33;;
3547;SDS011;1788;49.400;11.092;2023-01-16T04:48:37;1.30;;;1.20;;
3547;SDS011;1788;49.400;11.092;2023-01-16T04:51:04;2.03;;;1.40;;
3547;SDS011;1788;49.400;11.092;2023-01-16T04:53:31;2.33;;;1.50;;
3547;SDS011;1788;49.400;11.092;2023-01-16T04:55:58;1.40;;;1.30;;
3547;SDS011;1788;49.400;11.092;2023-01-16T04:58:25;1.27;;;1.17;;
3547;SDS011;1788;49.400;11.092;2023-01-16T05:00:53;2.63;;;1.47;;
3547;SDS011;1788;49.400;11.092;2023-01-16T05:03:19;3.00;;;1.30;;
3547;SDS011;1788;49.400;11.092;2023-01-16T05:05:46;1.73;;;1.10;;
3547;SDS011;1788;49.400;11.092;2023-01-16T05:08:12;1.13;;;1.07;;
3547;SDS011;1788;49.400;11.092;2023-01-16T05:10:39;2.33;;;1.30;;
3547;SDS011;1788;49.400;11.092;2023-01-16T05:13:06;1.50;;;0.97;;
3547;SDS011;1788;49.400;11.092;2023-01-16T05:15:32;1.43;;;1.37;;
3547;SDS011;1788;49.400;11.092;2023-01-16T05:17:59;1.13;;;1.03;;
3547;SDS011;1788;49.400;11.092;2023-01-16T05:20:25;1.20;;;1.10;;
3547;SDS011;1788;49.400;11.092;2023-01-16T05:22:52;2.13;;;1.30;;
3547;SDS011;1788;49.400;11.092;2023-01-16T05:25:19;1.47;;;1.00;;
3547;SDS011;1788;49.400;11.092;2023-01-16T05:30:12;2.23;;;1.40;;
3547;SDS011;1788;49.400;11.092;2023-01-16T05:32:39;1.30;;;1.20;;
3547;SDS011;1788;49.400;11.092;2023-01-16T05:35:06;1.80;;;1.40;;
3547;SDS011;1788;49.400;11.092;2023-01-16T05:37:33;2.20;;;2.00;;
3547;SDS011;1788;49.400;11.092;2023-01-16T05:39:59;1.87;;;1.40;;
3547;SDS011;1788;49.400;11.092;2023-01-16T05:42:26;2.90;;;1.20;;
3547;SDS011;1788;49.400;11.092;2023-01-16T05:44:52;2.13;;;2.00;;
3547;SDS011;1788;49.400;11.092;2023-01-16T05:47:19;1.40;;;1.30;;
3547;SDS011;1788;49.400;11.092;2023-01-16T05:49:46;1.90;;;1.30;;
3547;SDS011;1788;49.400;11.092;2023-01-16T05:52:13;3.23;;;3.03;;
3547;SDS011;1788;49.400;11.092;2023-01-16T05:54:39;2.00;;;1.90;;
3547;SDS011;1788;49.400;11.092;2023-01-16T05:57:07;1.90;;;1.80;;
3547;SDS011;1788;49.400;11.092;2023-01-16T05:59:34;1.60;;;1.50;;
3547;SDS011;1788;49.400;11.092;2023-01-16T06:02:01;1.63;;;1.53;;
3547;SDS011;1788;49.400;11.092;2023-01-16T06:04:30;1.63;;;1.27;;
3547;SDS011;1788;49.400;11.092;2023-01-16T06:06:57;1.50;;;1.40;;
3547;SDS011;1788;49.400;11.092;2023-01-16T06:09:23;1.30;;;1.20;;
3547;SDS011;1788;49.400;11.092;2023-01-16T06:11:50;1.40;;;1.30;;
3547;SDS011;1788;49.400;11.092;2023-01-16T06:14:17;2.87;;;1.90;;
3547;SDS011;1788;49.400;11.092;2023-01-16T06:16:44;6.20;;;2.67;;
3547;SDS011;1788;49.400;11.092;2023-01-16T06:19:11;11.13;;;6.40;;
3547;SDS011;1788;49.400;11.092;2023-01-16T06:21:37;5.90;;;3.53;;
3547;SDS011;1788;49.400;11.092;2023-01-16T06:24:04;4.77;;;3.80;;
3547;SDS011;1788;49.400;11.092;2023-01-16T06:26:30;2.40;;;2.20;;
3547;SDS011;1788;49.400;11.092;2023-01-16T06:28:57;1.90;;;1.80;;
3547;SDS011;1788;49.400;11.092;2023-01-16T06:31:24;1.63;;;1.53;;
3547;SDS011;1788;49.400;11.092;2023-01-16T06:33:51;1.87;;;1.73;;
3547;SDS011;1788;49.400;11.092;2023-01-16T06:36:18;2.37;;;1.20;;
3547;SDS011;1788;49.400;11.092;2023-01-16T06:38:44;1.40;;;1.30;;
3547;SDS011;1788;49.400;11.092;2023-01-16T06:41:11;2.77;;;1.60;;
3547;SDS011;1788;49.400;11.092;2023-01-16T06:43:37;1.80;;;1.40;;
3547;SDS011;1788;49.400;11.092;2023-01-16T06:46:04;1.70;;;1.60;;
3547;SDS011;1788;49.400;11.092;2023-01-16T06:48:31;1.80;;;1.70;;
3547;SDS011;1788;49.400;11.092;2023-01-16T06:50:57;1.77;;;1.70;;
3547;SDS011;1788;49.400;11.092;2023-01-16T06:53:24;2.83;;;2.63;;
3547;SDS011;1788;49.400;11.092;2023-01-16T06:55:50;2.93;;;2.20;;
3547;SDS011;1788;49.400;11.092;2023-01-16T06:58:17;3.37;;;1.67;;
3547;SDS011;1788;49.400;11.092;2023-01-16T07:00:44;2.97;;;2.27;;
3547;SDS011;1788;49.400;11.092;2023-01-16T07:03:11;5.07;;;2.40;;
3547;SDS011;1788;49.400;11.092;2023-01-16T07:05:38;1.67;;;1.60;;
3547;SDS011;1788;49.400;11.092;2023-01-16T07:08:04;1.37;;;1.30;;
3547;SDS011;1788;49.400;11.092;2023-01-16T07:10:31;1.30;;;1.20;;
3547;SDS011;1788;49.400;11.092;2023-01-16T07:12:57;2.60;;;1.80;;
3547;SDS011;1788;49.400;11.092;2023-01-16T07:15:24;2.47;;;1.80;;
3547;SDS011;1788;49.400;11.092;2023-01-16T07:17:51;3.30;;;2.60;;
3547;SDS011;1788;49.400;11.092;2023-01-16T07:20:17;1.70;;;1.60;;
3547;SDS011;1788;49.400;11.092;2023-01-16T07:22:44;2.20;;;1.97;;
3547;SDS011;1788;49.400;11.092;2023-01-16T07:25:12;4.00;;;3.43;;
3547;SDS011;1788;49.400;11.092;2023-01-16T07:27:37;10.10;;;3.50;;
3547;SDS011;1788;49.400;11.092;2023-01-16T07:30:04;4.17;;;2.40;;
3547;SDS011;1788;49.400;11.092;2023-01-16T07:32:32;2.53;;;2.40;;
3547;SDS011;1788;49.400;11.092;2023-01-16T07:34:59;1.63;;;1.27;;
3547;SDS011;1788;49.400;11.092;2023-01-16T07:37:25;2.93;;;1.87;;
3547;SDS011;1788;49.400;11.092;2023-01-16T07:39:52;1.47;;;1.37;;
3547;SDS011;1788;49.400;11.092;2023-01-16T07:42:19;4.63;;;1.70;;
3547;SDS011;1788;49.400;11.092;2023-01-16T07:44:45;1.77;;;1.67;;
3547;SDS011;1788;49.400;11.092;2023-01-16T07:47:12;1.77;;;1.67;;
3547;SDS011;1788;49.400;11.092;2023-01-16T07:49:38;1.53;;;1.30;;
3547;SDS011;1788;49.400;11.092;2023-01-16T07:52:05;1.63;;;1.53;;
3547;SDS011;1788;49.400;11.092;2023-01-16T07:54:32;2.73;;;2.23;;
3547;SDS011;1788;49.400;11.092;2023-01-16T07:56:58;1.37;;;1.27;;
3547;SDS011;1788;49.400;11.092;2023-01-16T07:59:26;1.47;;;1.40;;
3547;SDS011;1788;49.400;11.092;2023-01-16T08:01:53;1.97;;;1.57;;
3547;SDS011;1788;49.400;11.092;2023-01-16T08:04:20;1.67;;;1.63;;
3547;SDS011;1788;49.400;11.092;2023-01-16T08:06:47;2.10;;;1.30;;
3547;SDS011;1788;49.400;11.092;2023-01-16T08:09:14;1.50;;;1.40;;
3547;SDS011;1788;49.400;11.092;2023-01-16T08:11:40;1.20;;;1.10;;
3547;SDS011;1788;49.400;11.092;2023-01-16T08:14:07;1.67;;;1.60;;
3547;SDS011;1788;49.400;11.092;2023-01-16T08:16:35;1.70;;;1.60;;
3547;SDS011;1788;49.400;11.092;2023-01-16T08:19:01;1.20;;;1.10;;
3547;SDS011;1788;49.400;11.092;2023-01-16T08:21:28;1.40;;;1.30;;
3547;SDS011;1788;49.400;11.092;2023-01-16T08:23:54;1.67;;;1.57;;
3547;SDS011;1788;49.400;11.092;2023-01-16T08:26:21;1.57;;;1.50;;
3547;SDS011;1788;49.400;11.092;2023-01-16T08:28:48;1.33;;;1.23;;
3547;SDS011;1788;49.400;11.092;2023-01-16T08:31:15;2.43;;;1.40;;
3547;SDS011;1788;49.400;11.092;2023-01-16T08:33:42;1.87;;;1.37;;
3547;SDS011;1788;49.400;11.092;2023-01-16T08:36:09;1.53;;;1.47;;
3547;SDS011;1788;49.400;11.092;2023-01-16T08:38:35;1.53;;;1.03;;
3547;SDS011;1788;49.400;11.092;2023-01-16T08:41:02;0.93;;;0.90;;
3547;SDS011;1788;49.400;11.092;2023-01-16T08:43:28;2.87;;;1.53;;
3547;SDS011;1788;49.400;11.092;2023-01-16T08:45:55;1.30;;;1.20;;
3547;SDS011;1788;49.400;11.092;2023-01-16T08:50:49;1.97;;;1.27;;
3547;SDS011;1788;49.400;11.092;2023-01-16T08:53:15;2.37;;;2.00;;
3547;SDS011;1788;49.400;11.092;2023-01-16T08:55:42;2.87;;;1.63;;
3547;SDS011;1788;49.400;11.092;2023-01-16T08:58:08;1.40;;;1.30;;
3547;SDS011;1788;49.400;11.092;2023-01-16T09:00:35;3.20;;;1.40;;
3547;SDS011;1788;49.400;11.092;2023-01-16T09:03:02;1.17;;;1.10;;
3547;SDS011;1788;49.400;11.092;2023-01-16T09:05:28;1.70;;;1.00;;
3547;SDS011;1788;49.400;11.092;2023-01-16T09:07:55;1.50;;;1.40;;
3547;SDS011;1788;49.400;11.092;2023-01-16T09:10:22;1.30;;;1.20;;
3547;SDS011;1788;49.400;11.092;2023-01-16T09:12:48;2.60;;;1.27;;
3547;SDS011;1788;49.400;11.092;2023-01-16T09:15:15;0.83;;;0.73;;
3547;SDS011;1788;49.400;11.092;2023-01-16T09:17:41;1.53;;;1.33;;
3547;SDS011;1788;49.400;11.092;2023-01-16T09:20:08;2.07;;;1.00;;
3547;SDS011;1788;49.400;11.092;2023-01-16T09:22:35;0.90;;;0.80;;
3547;SDS011;1788;49.400;11.092;2023-01-16T09:25:01;1.10;;;1.00;;
3547;SDS011;1788;49.400;11.092;2023-01-16T09:27:28;1.13;;;1.03;;
3547;SDS011;1788;49.400;11.092;2023-01-16T09:29:54;1.03;;;1.00;;
3547;SDS011;1788;49.400;11.092;2023-01-16T09:32:21;1.10;;;1.00;;
3547;SDS011;1788;49.400;11.092;2023-01-16T09:34:48;1.00;;;0.90;;
3547;SDS011;1788;49.400;11.092;2023-01-16T09:37:15;2.80;;;1.00;;
3547;SDS011;1788;49.400;11.092;2023-01-16T09:39:42;1.47;;;1.30;;
3547;SDS011;1788;49.400;11.092;2023-01-16T09:44:35;1.27;;;1.17;;
3547;SDS011;1788;49.400;11.092;2023-01-16T09:47:02;0.87;;;0.63;;
3547;SDS011;1788;49.400;11.092;2023-01-16T09:49:30;1.00;;;0.90;;
3547;SDS011;1788;49.400;11.092;2023-01-16T09:54:22;1.63;;;1.00;;
3547;SDS011;1788;49.400;11.092;2023-01-16T09:56:49;0.97;;;0.87;;
3547;SDS011;1788;49.400;11.092;2023-01-16T10:01:42;1.30;;;1.20;;
3547;SDS011;1788;49.400;11.092;2023-01-16T10:06:37;1.27;;;1.17;;
3547;SDS011;1788;49.400;11.092;2023-01-16T10:14:01;1.90;;;0.90;;
3547;SDS011;1788;49.400;11.092;2023-01-16T10:21:22;1.10;;;1.00;;
3547;SDS011;1788;49.400;11.092;2023-01-16T10:26:17;1.00;;;0.90;;
3547;SDS011;1788;49.400;11.092;2023-01-16T10:33:35;1.07;;;1.00;;
3547;SDS011;1788;49.400;11.092;2023-01-16T10:36:01;0.80;;;0.70;;
3547;SDS011;1788;49.400;11.092;2023-01-16T10:40:55;0.93;;;0.83;;
3547;SDS011;1788;49.400;11.092;2023-01-16T10:43:27;1.20;;;1.10;;
3547;SDS011;1788;49.400;11.092;2023-01-16T10:45:48;0.97;;;0.87;;
3547;SDS011;1788;49.400;11.092;2023-01-16T10:48:15;1.07;;;1.00;;
3547;SDS011;1788;49.400;11.092;2023-01-16T10:50:42;1.17;;;1.07;;
3547;SDS011;1788;49.400;11.092;2023-01-16T10:53:09;0.90;;;0.80;;
3547;SDS011;1788;49.400;11.092;2023-01-16T10:55:35;1.60;;;0.90;;
3547;SDS011;1788;49.400;11.092;2023-01-16T10:58:06;1.37;;;1.27;;
3547;SDS011;1788;49.400;11.092;2023-01-16T11:02:57;1.10;;;1.00;;
3547;SDS011;1788;49.400;11.092;2023-01-16T11:07:48;0.90;;;0.80;;
3547;SDS011;1788;49.400;11.092;2023-01-16T11:10:14;1.40;;;1.00;;
3547;SDS011;1788;49.400;11.092;2023-01-16T11:12:42;1.27;;;1.10;;
3547;SDS011;1788;49.400;11.092;2023-01-16T11:17:37;1.17;;;0.90;;
3547;SDS011;1788;49.400;11.092;2023-01-16T11:20:03;1.03;;;0.93;;
3547;SDS011;1788;49.400;11.092;2023-01-16T11:22:30;1.33;;;1.23;;
3547;SDS011;1788;49.400;11.092;2023-01-16T11:24:57;1.40;;;1.17;;
3547;SDS011;1788;49.400;11.092;2023-01-16T11:27:25;4.87;;;2.37;;
3547;SDS011;1788;49.400;11.092;2023-01-16T11:32:17;1.53;;;1.40;;
3547;SDS011;1788;49.400;11.092;2023-01-16T11:34:45;1.37;;;1.20;;
3547;SDS011;1788;49.400;11.092;2023-01-16T11:37:10;1.60;;;1.20;;
3547;SDS011;1788;49.400;11.092;2023-01-16T11:39:37;3.43;;;1.63;;
3547;SDS011;1788;49.400;11.092;2023-01-16T11:42:04;2.60;;;2.07;;
3547;SDS011;1788;49.400;11.092;2023-01-16T11:44:32;2.83;;;1.57;;
3547;SDS011;1788;49.400;11.092;2023-01-16T11:46:58;1.30;;;1.20;;
3547;SDS011;1788;49.400;11.092;2023-01-16T11:51:53;2.70;;;1.23;;
3547;SDS011;1788;49.400;11.092;2023-01-16T11:54:22;4.97;;;2.90;;
3547;SDS011;1788;49.400;11.092;2023-01-16T12:01:43;1.60;;;1.50;;
3547;SDS011;1788;49.400;11.092;2023-01-16T12:04:09;2.73;;;1.20;;
3547;SDS011;1788;49.400;11.092;2023-01-16T12:09:03;2.20;;;1.27;;
3547;SDS011;1788;49.400;11.092;2023-01-16T12:11:38;1.50;;;1.27;;
3547;SDS011;1788;49.400;11.092;2023-01-16T12:28:37;1.23;;;1.13;;
3547;SDS011;1788;49.400;11.092;2023-01-16T12:33:30;1.10;;;1.00;;
3547;SDS011;1788;49.400;11.092;2023-01-16T12:40:50;1.30;;;1.20;;
3547;SDS011;1788;49.400;11.092;2023-01-16T12:48:11;1.10;;;1.00;;
3547;SDS011;1788;49.400;11.092;2023-01-16T12:53:03;1.80;;;1.10;;
3547;SDS011;1788;49.400;11.092;2023-01-16T12:57:56;1.53;;;1.47;;
3547;SDS011;1788;49.400;11.092;2023-01-16T13:02:48;2.13;;;1.20;;
3547;SDS011;1788;49.400;11.092;2023-01-16T13:12:33;1.20;;;1.10;;
3547;SDS011;1788;49.400;11.092;2023-01-16T13:15:02;1.60;;;0.87;;
3547;SDS011;1788;49.400;11.092;2023-01-16T13:17:30;1.27;;;1.17;;
3547;SDS011;1788;49.400;11.092;2023-01-16T13:19:53;0.90;;;0.80;;
3547;SDS011;1788;49.400;11.092;2023-01-16T13:22:21;0.90;;;0.80;;
3547;SDS011;1788;49.400;11.092;2023-01-16T13:27:15;1.57;;;1.07;;
3547;SDS011;1788;49.400;11.092;2023-01-16T13:34:36;1.00;;;0.90;;
3547;SDS011;1788;49.400;11.092;2023-01-16T13:41:54;1.10;;;1.00;;
3547;SDS011;1788;49.400;11.092;2023-01-16T13:46:48;1.27;;;1.10;;
3547;SDS011;1788;49.400;11.092;2023-01-16T13:51:42;0.97;;;0.87;;
3547;SDS011;1788;49.400;11.092;2023-01-16T13:54:11;1.17;;;1.07;;
3547;SDS011;1788;49.400;11.092;2023-01-16T13:56:34;1.83;;;1.40;;
3547;SDS011;1788;49.400;11.092;2023-01-16T14:06:24;1.20;;;1.10;;
3547;SDS011;1788;49.400;11.092;2023-01-16T14:08:48;1.47;;;1.20;;
3547;SDS011;1788;49.400;11.092;2023-01-16T14:11:15;2.27;;;1.27;;
3547;SDS011;1788;49.400;11.092;2023-01-16T14:13:41;1.83;;;1.17;;
3547;SDS011;1788;49.400;11.092;2023-01-16T14:21:01;1.33;;;1.27;;
3547;SDS011;1788;49.400;11.092;2023-01-16T14:25:54;1.53;;;1.43;;
3547;SDS011;1788;49.400;11.092;2023-01-16T14:28:20;1.23;;;1.13;;
3547;SDS011;1788;49.400;11.092;2023-01-16T14:30:47;1.47;;;1.20;;
3547;SDS011;1788;49.400;11.092;2023-01-16T14:33:15;2.33;;;1.53;;
3547;SDS011;1788;49.400;11.092;2023-01-16T14:38:10;2.13;;;1.80;;
3547;SDS011;1788;49.400;11.092;2023-01-16T14:40:36;1.83;;;1.70;;
3547;SDS011;1788;49.400;11.092;2023-01-16T14:43:01;1.60;;;1.50;;
3547;SDS011;1788;49.400;11.092;2023-01-16T14:50:38;11.23;;;5.10;;
3547;SDS011;1788;49.400;11.092;2023-01-16T14:52:49;18.70;;;5.10;;
3547;SDS011;1788;49.400;11.092;2023-01-16T14:55:15;22.77;;;8.77;;
3547;SDS011;1788;49.400;11.092;2023-01-16T14:57:41;5.90;;;4.13;;
3547;SDS011;1788;49.400;11.092;2023-01-16T15:00:10;3.20;;;2.83;;
3547;SDS011;1788;49.400;11.092;2023-01-16T15:02:37;4.17;;;2.97;;
3547;SDS011;1788;49.400;11.092;2023-01-16T15:09:56;2.17;;;1.77;;
3547;SDS011;1788;49.400;11.092;2023-01-16T15:12:25;2.70;;;2.20;;
3547;SDS011;1788;49.400;11.092;2023-01-16T15:17:26;1.40;;;1.30;;
3547;SDS011;1788;49.400;11.092;2023-01-16T15:24:35;8.00;;;4.57;;
3547;SDS011;1788;49.400;11.092;2023-01-16T15:27:04;7.83;;;4.10;;
3547;SDS011;1788;49.400;11.092;2023-01-16T15:31:57;2.03;;;1.90;;
3547;SDS011;1788;49.400;11.092;2023-01-16T15:34:24;7.83;;;4.17;;
3547;SDS011;1788;49.400;11.092;2023-01-16T15:36:50;1.97;;;1.63;;
3547;SDS011;1788;49.400;11.092;2023-01-16T15:39:18;3.03;;;2.83;;
3547;SDS011;1788;49.400;11.092;2023-01-16T15:41:44;2.07;;;1.67;;
3547;SDS011;1788;49.400;11.092;2023-01-16T15:44:12;2.50;;;2.10;;
3547;SDS011;1788;49.400;11.092;2023-01-16T15:51:32;1.70;;;1.60;;
3547;SDS011;1788;49.400;11.092;2023-01-16T15:53:58;1.00;;;0.90;;
3547;SDS011;1788;49.400;11.092;2023-01-16T15:58:52;2.03;;;1.50;;
3547;SDS011;1788;49.400;11.092;2023-01-16T16:03:46;1.47;;;1.37;;
3547;SDS011;1788;49.400;11.092;2023-01-16T16:06:13;1.50;;;1.40;;
3547;SDS011;1788;49.400;11.092;2023-01-16T16:08:40;1.30;;;1.20;;
3547;SDS011;1788;49.400;11.092;2023-01-16T16:11:06;1.67;;;1.50;;
3547;SDS011;1788;49.400;11.092;2023-01-16T16:13:32;1.43;;;1.30;;
3547;SDS011;1788;49.400;11.092;2023-01-16T16:16:00;1.43;;;1.33;;
3547;SDS011;1788;49.400;11.092;2023-01-16T16:18:25;2.47;;;2.33;;
3547;SDS011;1788;49.400;11.092;2023-01-16T16:20:52;1.60;;;1.50;;
3547;SDS011;1788;49.400;11.092;2023-01-16T16:23:20;1.77;;;1.67;;
3547;SDS011;1788;49.400;11.092;2023-01-16T16:30:39;1.80;;;1.70;;
3547;SDS011;1788;49.400;11.092;2023-01-16T16:33:12;3.10;;;1.50;;
3547;SDS011;1788;49.400;11.092;2023-01-16T16:35:33;1.60;;;1.50;;
3547;SDS011;1788;49.400;11.092;2023-01-16T16:37:59;2.40;;;1.33;;
3547;SDS011;1788;49.400;11.092;2023-01-16T16:40:25;1.47;;;1.13;;
3547;SDS011;1788;49.400;11.092;2023-01-16T16:45:20;2.27;;;1.20;;
3547;SDS011;1788;49.400;11.092;2023-01-16T16:47:46;1.40;;;1.30;;
3547;SDS011;1788;49.400;11.092;2023-01-16T16:57:39;3.23;;;2.47;;
3547;SDS011;1788;49.400;11.092;2023-01-16T17:00:00;2.47;;;2.27;;
3547;SDS011;1788;49.400;11.092;2023-01-16T17:02:27;1.90;;;1.87;;
3547;SDS011;1788;49.400;11.092;2023-01-16T17:04:53;3.93;;;2.77;;
3547;SDS011;1788;49.400;11.092;2023-01-16T17:07:20;5.07;;;2.20;;
3547;SDS011;1788;49.400;11.092;2023-01-16T17:09:47;1.57;;;1.50;;
3547;SDS011;1788;49.400;11.092;2023-01-16T17:12:15;2.00;;;1.90;;
3547;SDS011;1788;49.400;11.092;2023-01-16T17:14:41;1.70;;;1.60;;
3547;SDS011;1788;49.400;11.092;2023-01-16T17:17:09;2.20;;;1.83;;
3547;SDS011;1788;49.400;11.092;2023-01-16T17:19:35;1.77;;;1.70;;
3547;SDS011;1788;49.400;11.092;2023-01-16T17:22:02;1.43;;;1.37;;
3547;SDS011;1788;49.400;11.092;2023-01-16T17:24:28;1.30;;;1.20;;
3547;SDS011;1788;49.400;11.092;2023-01-16T17:26:56;1.40;;;1.30;;
3547;SDS011;1788;49.400;11.092;2023-01-16T17:29:23;2.27;;;1.30;;
3547;SDS011;1788;49.400;11.092;2023-01-16T17:31:50;1.23;;;1.13;;
3547;SDS011;1788;49.400;11.092;2023-01-16T17:34:18;1.57;;;1.40;;
3547;SDS011;1788;49.400;11.092;2023-01-16T17:36:43;1.87;;;1.73;;
3547;SDS011;1788;49.400;11.092;2023-01-16T17:39:10;1.37;;;1.30;;
3547;SDS011;1788;49.400;11.092;2023-01-16T17:41:37;1.37;;;1.27;;
3547;SDS011;1788;49.400;11.092;2023-01-16T17:44:04;3.93;;;2.77;;
3547;SDS011;1788;49.400;11.092;2023-01-16T17:46:30;1.77;;;1.70;;
3547;SDS011;1788;49.400;11.092;2023-01-16T17:48:57;2.50;;;2.30;;
3547;SDS011;1788;49.400;11.092;2023-01-16T17:51:24;9.57;;;5.30;;
3547;SDS011;1788;49.400;11.092;2023-01-16T17:53:51;9.63;;;4.67;;
3547;SDS011;1788;49.400;11.092;2023-01-16T17:56:19;3.67;;;2.03;;
3547;SDS011;1788;49.400;11.092;2023-01-16T17:58:46;1.93;;;1.83;;
3547;SDS011;1788;49.400;11.092;2023-01-16T18:01:14;2.37;;;2.10;;
3547;SDS011;1788;49.400;11.092;2023-01-16T18:03:39;1.90;;;1.80;;
3547;SDS011;1788;49.400;11.092;2023-01-16T18:06:06;1.30;;;1.20;;
3547;SDS011;1788;49.400;11.092;2023-01-16T18:08:33;2.30;;;2.10;;
3547;SDS011;1788;49.400;11.092;2023-01-16T18:10:59;2.50;;;2.30;;
3547;SDS011;1788;49.400;11.092;2023-01-16T18:13:27;1.77;;;1.67;;
3547;SDS011;1788;49.400;11.092;2023-01-16T18:15:54;2.47;;;2.27;;
3547;SDS011;1788;49.400;11.092;2023-01-16T18:18:21;2.23;;;1.97;;
3547;SDS011;1788;49.400;11.092;2023-01-16T18:20:47;1.83;;;1.73;;
3547;SDS011;1788;49.400;11.092;2023-01-16T18:23:14;3.93;;;2.60;;
3547;SDS011;1788;49.400;11.092;2023-01-16T18:25:45;2.37;;;2.10;;
3547;SDS011;1788;49.400;11.092;2023-01-16T18:28:08;2.50;;;1.30;;
3547;SDS011;1788;49.400;11.092;2023-01-16T18:30:34;1.50;;;1.43;;
3547;SDS011;1788;49.400;11.092;2023-01-16T18:33:01;1.80;;;1.20;;
3547;SDS011;1788;49.400;11.092;2023-01-16T18:35:28;1.80;;;1.70;;
3547;SDS011;1788;49.400;11.092;2023-01-16T18:37:54;1.53;;;1.40;;
3547;SDS011;1788;49.400;11.092;2023-01-16T18:40:21;2.43;;;1.43;;